sensor_id;sensor_type;location;lat;lon;timestamp;P1;durP1;ratioP1;P2;durP2;ratioP2
45103;SDS011;30865;51.288;4.572;2022-12-18T00:02:12;64.10;;;25.97;;
45103;SDS011;30865;51.288;4.572;2022-12-18T00:04:38;50.83;;;21.27;;
45103;SDS011;30865;51.288;4.572;2022-12-18T00:07:03;52.33;;;21.30;;
45103;SDS011;30865;51.288;4.572;2022-12-18T00:09:29;47.90;;;19.07;;
45103;SDS011;30865;51.288;4.572;2022-12-18T00:11:54;47.20;;;21.80;;
45103;SDS011;30865;51.288;4.572;2022-12-18T00:14:20;47.90;;;19.90;;
45103;SDS011;30865;51.288;4.572;2022-12-18T00:16:46;55.87;;;24.47;;
45103;SDS011;30865;51.288;4.572;2022-12-18T00:19:12;55.07;;;22.37;;
45103;SDS011;30865;51.288;4.572;2022-12-18T00:21:39;58.63;;;22.63;;
45103;SDS011;30865;51.288;4.572;2022-12-18T00:24:06;60.53;;;24.23;;
45103;SDS011;30865;51.288;4.572;2022-12-18T00:26:33;55.23;;;24.90;;
45103;SDS011;30865;51.288;4.572;2022-12-18T00:29:05;47.53;;;19.53;;
45103;SDS011;30865;51.288;4.572;2022-12-18T00:31:32;48.63;;;21.10;;
45103;SDS011;30865;51.288;4.572;2022-12-18T00:33:58;46.60;;;20.17;;
45103;SDS011;30865;51.288;4.572;2022-12-18T00:36:25;45.67;;;20.33;;
45103;SDS011;30865;51.288;4.572;2022-12-18T00:38:53;56.57;;;23.33;;
45103;SDS011;30865;51.288;4.572;2022-12-18T00:41:20;51.37;;;22.33;;
45103;SDS011;30865;51.288;4.572;2022-12-18T00:44:05;43.40;;;18.20;;
45103;SDS011;30865;51.288;4.572;2022-12-18T00:46:32;47.03;;;18.90;;
45103;SDS011;30865;51.288;4.572;2022-12-18T00:48:58;34.67;;;18.30;;
45103;SDS011;30865;51.288;4.572;2022-12-18T00:51:25;53.30;;;22.50;;
45103;SDS011;30865;51.288;4.572;2022-12-18T00:53:51;50.80;;;21.83;;
45103;SDS011;30865;51.288;4.572;2022-12-18T00:56:17;56.33;;;22.20;;
45103;SDS011;30865;51.288;4.572;2022-12-18T00:58:42;50.50;;;22.60;;
45103;SDS011;30865;51.288;4.572;2022-12-18T01:01:08;60.43;;;22.83;;
45103;SDS011;30865;51.288;4.572;2022-12-18T01:03:33;54.57;;;23.43;;
45103;SDS011;30865;51.288;4.572;2022-12-18T01:05:59;40.93;;;18.67;;
45103;SDS011;30865;51.288;4.572;2022-12-18T01:08:29;51.67;;;22.77;;
45103;SDS011;30865;51.288;4.572;2022-12-18T01:10:55;43.07;;;17.23;;
45103;SDS011;30865;51.288;4.572;2022-12-18T01:13:20;45.87;;;20.80;;
45103;SDS011;30865;51.288;4.572;2022-12-18T01:15:49;43.03;;;16.37;;
45103;SDS011;30865;51.288;4.572;2022-12-18T01:18:15;51.47;;;19.80;;
45103;SDS011;30865;51.288;4.572;2022-12-18T01:20:41;42.97;;;19.03;;
45103;SDS011;30865;51.288;4.572;2022-12-18T01:23:07;42.43;;;17.77;;
45103;SDS011;30865;51.288;4.572;2022-12-18T01:25:32;39.40;;;15.97;;
45103;SDS011;30865;51.288;4.572;2022-12-18T01:27:58;52.57;;;21.70;;
45103;SDS011;30865;51.288;4.572;2022-12-18T01:30:23;56.80;;;23.40;;
45103;SDS011;30865;51.288;4.572;2022-12-18T01:32:49;48.97;;;18.90;;
45103;SDS011;30865;51.288;4.572;2022-12-18T01:35:14;51.37;;;19.43;;
45103;SDS011;30865;51.288;4.572;2022-12-18T01:37:40;48.70;;;19.70;;
45103;SDS011;30865;51.288;4.572;2022-12-18T01:40:05;50.07;;;22.10;;
45103;SDS011;30865;51.288;4.572;2022-12-18T01:42:32;43.60;;;18.13;;
45103;SDS011;30865;51.288;4.572;2022-12-18T01:50:00;46.00;;;18.80;;
45103;SDS011;30865;51.288;4.572;2022-12-18T01:52:32;32.73;;;15.23;;
45103;SDS011;30865;51.288;4.572;2022-12-18T01:54:59;40.33;;;18.07;;
45103;SDS011;30865;51.288;4.572;2022-12-18T01:57:26;19.13;;;11.30;;
45103;SDS011;30865;51.288;4.572;2022-12-18T01:59:53;30.83;;;13.43;;
45103;SDS011;30865;51.288;4.572;2022-12-18T02:02:26;43.97;;;20.83;;
45103;SDS011;30865;51.288;4.572;2022-12-18T02:04:53;46.90;;;18.93;;
45103;SDS011;30865;51.288;4.572;2022-12-18T02:07:21;48.13;;;21.77;;
45103;SDS011;30865;51.288;4.572;2022-12-18T02:09:59;35.57;;;16.87;;
45103;SDS011;30865;51.288;4.572;2022-12-18T02:12:42;42.83;;;19.23;;
45103;SDS011;30865;51.288;4.572;2022-12-18T02:15:24;44.80;;;16.73;;
45103;SDS011;30865;51.288;4.572;2022-12-18T02:18:18;42.23;;;20.87;;
45103;SDS011;30865;51.288;4.572;2022-12-18T02:20:55;46.70;;;19.60;;
45103;SDS011;30865;51.288;4.572;2022-12-18T02:26:19;34.97;;;17.30;;
45103;SDS011;30865;51.288;4.572;2022-12-18T02:28:58;39.87;;;17.53;;
45103;SDS011;30865;51.288;4.572;2022-12-18T02:31:31;40.27;;;15.20;;
45103;SDS011;30865;51.288;4.572;2022-12-18T02:34:03;45.63;;;19.30;;
45103;SDS011;30865;51.288;4.572;2022-12-18T02:36:32;39.60;;;17.80;;
45103;SDS011;30865;51.288;4.572;2022-12-18T02:38:59;48.87;;;19.23;;
45103;SDS011;30865;51.288;4.572;2022-12-18T02:41:26;30.33;;;15.30;;
45103;SDS011;30865;51.288;4.572;2022-12-18T02:43:55;45.07;;;19.57;;
45103;SDS011;30865;51.288;4.572;2022-12-18T02:46:27;36.13;;;16.92;;
45103;SDS011;30865;51.288;4.572;2022-12-18T02:48:57;42.53;;;19.80;;
45103;SDS011;30865;51.288;4.572;2022-12-18T02:51:49;44.57;;;17.60;;
45103;SDS011;30865;51.288;4.572;2022-12-18T02:54:23;43.63;;;17.33;;
45103;SDS011;30865;51.288;4.572;2022-12-18T02:57:03;36.73;;;15.77;;
45103;SDS011;30865;51.288;4.572;2022-12-18T02:59:49;40.07;;;17.43;;
45103;SDS011;30865;51.288;4.572;2022-12-18T03:02:32;44.47;;;18.00;;
45103;SDS011;30865;51.288;4.572;2022-12-18T03:05:09;33.40;;;15.37;;
45103;SDS011;30865;51.288;4.572;2022-12-18T03:07:58;34.67;;;16.67;;
45103;SDS011;30865;51.288;4.572;2022-12-18T03:10:29;37.97;;;16.60;;
45103;SDS011;30865;51.288;4.572;2022-12-18T03:13:12;41.77;;;17.97;;
45103;SDS011;30865;51.288;4.572;2022-12-18T03:15:51;38.87;;;16.67;;
45103;SDS011;30865;51.288;4.572;2022-12-18T03:18:21;42.67;;;17.77;;
45103;SDS011;30865;51.288;4.572;2022-12-18T03:20:51;40.33;;;17.80;;
45103;SDS011;30865;51.288;4.572;2022-12-18T03:23:21;46.67;;;18.37;;
45103;SDS011;30865;51.288;4.572;2022-12-18T03:25:51;32.88;;;16.38;;
45103;SDS011;30865;51.288;4.572;2022-12-18T03:28:21;37.60;;;17.77;;
45103;SDS011;30865;51.288;4.572;2022-12-18T03:30:49;40.77;;;16.93;;
45103;SDS011;30865;51.288;4.572;2022-12-18T03:33:19;44.47;;;17.88;;
45103;SDS011;30865;51.288;4.572;2022-12-18T03:35:50;27.07;;;12.87;;
45103;SDS011;30865;51.288;4.572;2022-12-18T03:38:16;42.30;;;17.20;;
45103;SDS011;30865;51.288;4.572;2022-12-18T03:40:51;31.50;;;14.93;;
45103;SDS011;30865;51.288;4.572;2022-12-18T03:46:25;41.97;;;16.73;;
45103;SDS011;30865;51.288;4.572;2022-12-18T03:49:41;36.47;;;14.90;;
45103;SDS011;30865;51.288;4.572;2022-12-18T03:51:53;44.03;;;17.87;;
45103;SDS011;30865;51.288;4.572;2022-12-18T03:54:34;43.17;;;14.40;;
45103;SDS011;30865;51.288;4.572;2022-12-18T03:57:03;44.70;;;18.20;;
45103;SDS011;30865;51.288;4.572;2022-12-18T03:59:39;42.37;;;16.13;;
45103;SDS011;30865;51.288;4.572;2022-12-18T04:02:06;39.80;;;17.77;;
45103;SDS011;30865;51.288;4.572;2022-12-18T04:04:33;35.67;;;15.07;;
45103;SDS011;30865;51.288;4.572;2022-12-18T04:07:00;32.17;;;14.70;;
45103;SDS011;30865;51.288;4.572;2022-12-18T04:09:27;38.37;;;17.30;;
45103;SDS011;30865;51.288;4.572;2022-12-18T04:11:55;39.70;;;15.60;;
45103;SDS011;30865;51.288;4.572;2022-12-18T04:14:20;46.00;;;18.37;;
45103;SDS011;30865;51.288;4.572;2022-12-18T04:16:46;39.00;;;15.00;;
45103;SDS011;30865;51.288;4.572;2022-12-18T04:19:11;37.23;;;16.80;;
45103;SDS011;30865;51.288;4.572;2022-12-18T04:21:37;47.53;;;17.73;;
45103;SDS011;30865;51.288;4.572;2022-12-18T04:24:02;21.60;;;10.17;;
45103;SDS011;30865;51.288;4.572;2022-12-18T04:26:28;26.73;;;14.63;;
45103;SDS011;30865;51.288;4.572;2022-12-18T04:28:53;32.97;;;14.63;;
45103;SDS011;30865;51.288;4.572;2022-12-18T04:31:19;38.97;;;18.07;;
45103;SDS011;30865;51.288;4.572;2022-12-18T04:33:44;32.80;;;14.80;;
45103;SDS011;30865;51.288;4.572;2022-12-18T04:36:10;38.20;;;15.83;;
45103;SDS011;30865;51.288;4.572;2022-12-18T04:38:37;35.17;;;15.03;;
45103;SDS011;30865;51.288;4.572;2022-12-18T04:41:02;35.33;;;15.27;;
45103;SDS011;30865;51.288;4.572;2022-12-18T04:43:28;43.60;;;16.83;;
45103;SDS011;30865;51.288;4.572;2022-12-18T04:46:00;37.73;;;15.50;;
45103;SDS011;30865;51.288;4.572;2022-12-18T04:48:27;33.67;;;14.73;;
45103;SDS011;30865;51.288;4.572;2022-12-18T04:50:52;29.07;;;15.83;;
45103;SDS011;30865;51.288;4.572;2022-12-18T04:53:18;30.67;;;14.53;;
45103;SDS011;30865;51.288;4.572;2022-12-18T04:55:43;32.47;;;13.37;;
45103;SDS011;30865;51.288;4.572;2022-12-18T04:58:09;36.23;;;14.97;;
45103;SDS011;30865;51.288;4.572;2022-12-18T05:00:34;27.63;;;14.13;;
45103;SDS011;30865;51.288;4.572;2022-12-18T05:03:01;41.67;;;15.77;;
45103;SDS011;30865;51.288;4.572;2022-12-18T05:05:27;36.83;;;14.37;;
45103;SDS011;30865;51.288;4.572;2022-12-18T05:07:52;42.20;;;16.77;;
45103;SDS011;30865;51.288;4.572;2022-12-18T05:10:18;25.70;;;12.37;;
45103;SDS011;30865;51.288;4.572;2022-12-18T05:12:43;32.70;;;12.77;;
45103;SDS011;30865;51.288;4.572;2022-12-18T05:17:52;28.97;;;11.80;;
45103;SDS011;30865;51.288;4.572;2022-12-18T05:20:17;26.20;;;11.60;;
45103;SDS011;30865;51.288;4.572;2022-12-18T05:22:43;33.07;;;12.13;;
45103;SDS011;30865;51.288;4.572;2022-12-18T05:25:09;18.27;;;8.33;;
45103;SDS011;30865;51.288;4.572;2022-12-18T05:27:34;28.13;;;12.57;;
45103;SDS011;30865;51.288;4.572;2022-12-18T05:30:00;30.47;;;15.13;;
45103;SDS011;30865;51.288;4.572;2022-12-18T05:32:25;29.53;;;13.77;;
45103;SDS011;30865;51.288;4.572;2022-12-18T05:34:51;23.43;;;10.80;;
45103;SDS011;30865;51.288;4.572;2022-12-18T05:37:17;31.23;;;15.00;;
45103;SDS011;30865;51.288;4.572;2022-12-18T05:39:42;20.70;;;10.90;;
45103;SDS011;30865;51.288;4.572;2022-12-18T05:42:08;18.20;;;9.13;;
45103;SDS011;30865;51.288;4.572;2022-12-18T05:44:34;28.50;;;11.37;;
45103;SDS011;30865;51.288;4.572;2022-12-18T05:47:00;24.60;;;11.20;;
45103;SDS011;30865;51.288;4.572;2022-12-18T05:49:26;27.80;;;13.30;;
45103;SDS011;30865;51.288;4.572;2022-12-18T05:51:51;28.23;;;12.50;;
45103;SDS011;30865;51.288;4.572;2022-12-18T05:54:17;32.93;;;15.70;;
45103;SDS011;30865;51.288;4.572;2022-12-18T05:56:42;28.50;;;13.20;;
45103;SDS011;30865;51.288;4.572;2022-12-18T05:59:08;41.33;;;16.27;;
45103;SDS011;30865;51.288;4.572;2022-12-18T06:01:33;31.63;;;14.43;;
45103;SDS011;30865;51.288;4.572;2022-12-18T06:03:59;34.83;;;12.90;;
45103;SDS011;30865;51.288;4.572;2022-12-18T06:06:25;30.37;;;15.63;;
45103;SDS011;30865;51.288;4.572;2022-12-18T06:08:52;37.37;;;14.50;;
45103;SDS011;30865;51.288;4.572;2022-12-18T06:11:20;30.47;;;13.20;;
45103;SDS011;30865;51.288;4.572;2022-12-18T06:13:51;29.27;;;13.70;;
45103;SDS011;30865;51.288;4.572;2022-12-18T06:16:18;28.03;;;13.00;;
45103;SDS011;30865;51.288;4.572;2022-12-18T06:18:43;33.57;;;14.23;;
45103;SDS011;30865;51.288;4.572;2022-12-18T06:21:09;34.17;;;13.23;;
45103;SDS011;30865;51.288;4.572;2022-12-18T06:23:35;31.30;;;13.90;;
45103;SDS011;30865;51.288;4.572;2022-12-18T06:26:04;28.77;;;12.47;;
45103;SDS011;30865;51.288;4.572;2022-12-18T06:28:35;22.13;;;10.20;;
45103;SDS011;30865;51.288;4.572;2022-12-18T06:31:02;29.47;;;12.90;;
45103;SDS011;30865;51.288;4.572;2022-12-18T06:33:28;21.70;;;13.37;;
45103;SDS011;30865;51.288;4.572;2022-12-18T06:35:54;26.70;;;12.33;;
45103;SDS011;30865;51.288;4.572;2022-12-18T06:38:19;24.07;;;11.37;;
45103;SDS011;30865;51.288;4.572;2022-12-18T06:40:45;28.40;;;13.00;;
45103;SDS011;30865;51.288;4.572;2022-12-18T06:43:10;30.97;;;13.07;;
45103;SDS011;30865;51.288;4.572;2022-12-18T06:45:36;29.43;;;12.43;;
45103;SDS011;30865;51.288;4.572;2022-12-18T06:48:01;25.10;;;13.87;;
45103;SDS011;30865;51.288;4.572;2022-12-18T06:50:27;32.87;;;14.03;;
45103;SDS011;30865;51.288;4.572;2022-12-18T06:52:52;33.87;;;14.47;;
45103;SDS011;30865;51.288;4.572;2022-12-18T06:55:18;29.20;;;14.13;;
45103;SDS011;30865;51.288;4.572;2022-12-18T06:57:44;21.17;;;10.97;;
45103;SDS011;30865;51.288;4.572;2022-12-18T07:00:09;28.53;;;13.67;;
45103;SDS011;30865;51.288;4.572;2022-12-18T07:02:35;33.90;;;14.33;;
45103;SDS011;30865;51.288;4.572;2022-12-18T07:05:01;32.53;;;14.97;;
45103;SDS011;30865;51.288;4.572;2022-12-18T07:07:26;33.93;;;14.80;;
45103;SDS011;30865;51.288;4.572;2022-12-18T07:09:52;33.63;;;14.23;;
45103;SDS011;30865;51.288;4.572;2022-12-18T07:12:17;33.00;;;14.20;;
45103;SDS011;30865;51.288;4.572;2022-12-18T07:14:43;28.40;;;12.93;;
45103;SDS011;30865;51.288;4.572;2022-12-18T07:17:09;31.40;;;14.30;;
45103;SDS011;30865;51.288;4.572;2022-12-18T07:19:34;30.13;;;14.17;;
45103;SDS011;30865;51.288;4.572;2022-12-18T07:22:00;23.10;;;12.97;;
45103;SDS011;30865;51.288;4.572;2022-12-18T07:24:26;26.70;;;13.60;;
45103;SDS011;30865;51.288;4.572;2022-12-18T07:26:51;31.77;;;12.30;;
45103;SDS011;30865;51.288;4.572;2022-12-18T07:29:17;29.27;;;14.43;;
45103;SDS011;30865;51.288;4.572;2022-12-18T07:31:42;27.27;;;12.60;;
45103;SDS011;30865;51.288;4.572;2022-12-18T07:34:12;22.37;;;11.97;;
45103;SDS011;30865;51.288;4.572;2022-12-18T07:36:38;25.08;;;13.48;;
45103;SDS011;30865;51.288;4.572;2022-12-18T07:39:04;32.30;;;15.00;;
45103;SDS011;30865;51.288;4.572;2022-12-18T07:41:29;24.33;;;12.20;;
45103;SDS011;30865;51.288;4.572;2022-12-18T07:43:55;30.07;;;12.87;;
45103;SDS011;30865;51.288;4.572;2022-12-18T07:46:20;33.63;;;14.33;;
45103;SDS011;30865;51.288;4.572;2022-12-18T07:48:46;29.57;;;14.93;;
45103;SDS011;30865;51.288;4.572;2022-12-18T07:51:11;31.23;;;14.63;;
45103;SDS011;30865;51.288;4.572;2022-12-18T07:53:37;26.37;;;11.83;;
45103;SDS011;30865;51.288;4.572;2022-12-18T07:56:04;29.73;;;13.30;;
45103;SDS011;30865;51.288;4.572;2022-12-18T07:58:31;26.73;;;13.87;;
45103;SDS011;30865;51.288;4.572;2022-12-18T08:01:04;22.87;;;11.30;;
45103;SDS011;30865;51.288;4.572;2022-12-18T08:03:31;27.10;;;12.30;;
45103;SDS011;30865;51.288;4.572;2022-12-18T08:06:00;27.63;;;13.60;;
45103;SDS011;30865;51.288;4.572;2022-12-18T08:08:28;23.00;;;12.52;;
45103;SDS011;30865;51.288;4.572;2022-12-18T08:10:54;23.97;;;12.47;;
45103;SDS011;30865;51.288;4.572;2022-12-18T08:13:20;21.83;;;10.93;;
45103;SDS011;30865;51.288;4.572;2022-12-18T08:15:46;14.40;;;6.80;;
45103;SDS011;30865;51.288;4.572;2022-12-18T08:18:11;27.67;;;13.90;;
45103;SDS011;30865;51.288;4.572;2022-12-18T08:20:37;21.40;;;9.17;;
45103;SDS011;30865;51.288;4.572;2022-12-18T08:23:02;17.07;;;10.73;;
45103;SDS011;30865;51.288;4.572;2022-12-18T08:25:28;28.10;;;12.93;;
45103;SDS011;30865;51.288;4.572;2022-12-18T08:27:53;25.10;;;11.30;;
45103;SDS011;30865;51.288;4.572;2022-12-18T08:30:20;33.53;;;14.70;;
45103;SDS011;30865;51.288;4.572;2022-12-18T08:32:45;35.87;;;14.77;;
45103;SDS011;30865;51.288;4.572;2022-12-18T08:35:10;23.77;;;12.13;;
45103;SDS011;30865;51.288;4.572;2022-12-18T08:37:36;30.10;;;13.70;;
45103;SDS011;30865;51.288;4.572;2022-12-18T08:40:02;28.53;;;13.33;;
45103;SDS011;30865;51.288;4.572;2022-12-18T08:42:28;20.40;;;10.50;;
45103;SDS011;30865;51.288;4.572;2022-12-18T08:45:20;26.93;;;14.23;;
45103;SDS011;30865;51.288;4.572;2022-12-18T08:47:45;26.03;;;11.27;;
45103;SDS011;30865;51.288;4.572;2022-12-18T08:50:11;27.27;;;8.57;;
45103;SDS011;30865;51.288;4.572;2022-12-18T08:52:37;27.13;;;12.37;;
45103;SDS011;30865;51.288;4.572;2022-12-18T08:55:02;26.27;;;13.50;;
45103;SDS011;30865;51.288;4.572;2022-12-18T08:57:28;31.13;;;11.53;;
45103;SDS011;30865;51.288;4.572;2022-12-18T08:59:54;26.73;;;10.67;;
45103;SDS011;30865;51.288;4.572;2022-12-18T09:02:19;15.40;;;9.27;;
45103;SDS011;30865;51.288;4.572;2022-12-18T09:04:46;20.13;;;11.50;;
45103;SDS011;30865;51.288;4.572;2022-12-18T09:07:12;24.93;;;11.87;;
45103;SDS011;30865;51.288;4.572;2022-12-18T09:09:38;14.60;;;8.97;;
45103;SDS011;30865;51.288;4.572;2022-12-18T09:12:03;14.97;;;7.80;;
45103;SDS011;30865;51.288;4.572;2022-12-18T09:14:29;27.73;;;13.83;;
45103;SDS011;30865;51.288;4.572;2022-12-18T09:16:54;28.30;;;13.13;;
45103;SDS011;30865;51.288;4.572;2022-12-18T09:19:20;29.10;;;12.43;;
45103;SDS011;30865;51.288;4.572;2022-12-18T09:21:45;32.37;;;12.87;;
45103;SDS011;30865;51.288;4.572;2022-12-18T09:24:11;33.43;;;15.67;;
45103;SDS011;30865;51.288;4.572;2022-12-18T09:26:38;36.43;;;16.37;;
45103;SDS011;30865;51.288;4.572;2022-12-18T09:29:03;33.30;;;15.90;;
45103;SDS011;30865;51.288;4.572;2022-12-18T09:31:29;28.30;;;13.87;;
45103;SDS011;30865;51.288;4.572;2022-12-18T09:33:55;33.87;;;14.77;;
45103;SDS011;30865;51.288;4.572;2022-12-18T09:36:21;38.57;;;16.03;;
45103;SDS011;30865;51.288;4.572;2022-12-18T09:38:47;27.57;;;12.53;;
45103;SDS011;30865;51.288;4.572;2022-12-18T09:44:09;37.07;;;15.47;;
45103;SDS011;30865;51.288;4.572;2022-12-18T09:46:42;32.40;;;15.73;;
45103;SDS011;30865;51.288;4.572;2022-12-18T09:49:12;32.67;;;16.23;;
45103;SDS011;30865;51.288;4.572;2022-12-18T09:51:49;17.00;;;10.43;;
45103;SDS011;30865;51.288;4.572;2022-12-18T09:54:24;36.30;;;16.77;;
45103;SDS011;30865;51.288;4.572;2022-12-18T09:56:55;26.60;;;13.70;;
45103;SDS011;30865;51.288;4.572;2022-12-18T09:59:22;35.83;;;17.47;;
45103;SDS011;30865;51.288;4.572;2022-12-18T10:01:50;30.67;;;15.60;;
45103;SDS011;30865;51.288;4.572;2022-12-18T10:04:16;31.23;;;15.93;;
45103;SDS011;30865;51.288;4.572;2022-12-18T10:07:00;30.57;;;16.63;;
45103;SDS011;30865;51.288;4.572;2022-12-18T10:09:37;38.53;;;16.87;;
45103;SDS011;30865;51.288;4.572;2022-12-18T10:13:10;22.43;;;10.50;;
45103;SDS011;30865;51.288;4.572;2022-12-18T10:15:45;30.20;;;12.37;;
45103;SDS011;30865;51.288;4.572;2022-12-18T10:18:21;36.53;;;17.27;;
45103;SDS011;30865;51.288;4.572;2022-12-18T10:21:03;37.03;;;17.97;;
45103;SDS011;30865;51.288;4.572;2022-12-18T10:23:47;39.30;;;16.40;;
45103;SDS011;30865;51.288;4.572;2022-12-18T10:26:26;36.87;;;17.20;;
45103;SDS011;30865;51.288;4.572;2022-12-18T10:28:52;34.60;;;16.53;;
45103;SDS011;30865;51.288;4.572;2022-12-18T10:31:20;40.23;;;19.30;;
45103;SDS011;30865;51.288;4.572;2022-12-18T10:33:47;36.17;;;17.77;;
45103;SDS011;30865;51.288;4.572;2022-12-18T10:36:13;37.40;;;18.87;;
45103;SDS011;30865;51.288;4.572;2022-12-18T10:38:39;38.73;;;17.33;;
45103;SDS011;30865;51.288;4.572;2022-12-18T10:41:06;40.20;;;18.47;;
45103;SDS011;30865;51.288;4.572;2022-12-18T10:46:46;38.43;;;17.30;;
45103;SDS011;30865;51.288;4.572;2022-12-18T10:49:32;35.27;;;20.30;;
45103;SDS011;30865;51.288;4.572;2022-12-18T10:52:18;38.33;;;16.93;;
45103;SDS011;30865;51.288;4.572;2022-12-18T10:54:47;33.90;;;16.00;;
45103;SDS011;30865;51.288;4.572;2022-12-18T10:57:29;37.07;;;18.23;;
45103;SDS011;30865;51.288;4.572;2022-12-18T10:59:59;38.75;;;15.55;;
45103;SDS011;30865;51.288;4.572;2022-12-18T11:02:38;28.08;;;15.63;;
45103;SDS011;30865;51.288;4.572;2022-12-18T11:05:22;33.67;;;14.30;;
45103;SDS011;30865;51.288;4.572;2022-12-18T11:08:02;37.00;;;17.23;;
45103;SDS011;30865;51.288;4.572;2022-12-18T11:13:37;41.00;;;20.03;;
45103;SDS011;30865;51.288;4.572;2022-12-18T11:15:56;40.43;;;17.17;;
45103;SDS011;30865;51.288;4.572;2022-12-18T11:21:08;42.23;;;19.13;;
45103;SDS011;30865;51.288;4.572;2022-12-18T11:23:36;41.43;;;19.47;;
45103;SDS011;30865;51.288;4.572;2022-12-18T11:26:08;36.83;;;16.73;;
45103;SDS011;30865;51.288;4.572;2022-12-18T11:31:19;34.67;;;17.20;;
45103;SDS011;30865;51.288;4.572;2022-12-18T11:34:02;40.00;;;16.70;;
45103;SDS011;30865;51.288;4.572;2022-12-18T11:36:39;29.97;;;13.93;;
45103;SDS011;30865;51.288;4.572;2022-12-18T11:39:20;39.30;;;17.40;;
45103;SDS011;30865;51.288;4.572;2022-12-18T11:42:02;42.37;;;18.30;;
45103;SDS011;30865;51.288;4.572;2022-12-18T11:50:28;34.93;;;17.63;;
45103;SDS011;30865;51.288;4.572;2022-12-18T11:53:01;34.50;;;17.40;;
45103;SDS011;30865;51.288;4.572;2022-12-18T11:58:08;40.70;;;19.00;;
45103;SDS011;30865;51.288;4.572;2022-12-18T12:03:11;41.47;;;17.87;;
45103;SDS011;30865;51.288;4.572;2022-12-18T12:08:49;51.33;;;18.87;;
45103;SDS011;30865;51.288;4.572;2022-12-18T12:12:02;33.20;;;17.80;;
45103;SDS011;30865;51.288;4.572;2022-12-18T12:15:17;37.03;;;16.67;;
45103;SDS011;30865;51.288;4.572;2022-12-18T12:17:53;37.70;;;18.23;;
45103;SDS011;30865;51.288;4.572;2022-12-18T12:26:03;38.97;;;16.27;;
45103;SDS011;30865;51.288;4.572;2022-12-18T12:31:38;34.70;;;17.50;;
45103;SDS011;30865;51.288;4.572;2022-12-18T12:34:23;44.37;;;20.43;;
45103;SDS011;30865;51.288;4.572;2022-12-18T12:39:44;37.33;;;15.80;;
45103;SDS011;30865;51.288;4.572;2022-12-18T12:42:20;40.00;;;20.25;;
45103;SDS011;30865;51.288;4.572;2022-12-18T12:45:20;40.15;;;18.10;;
45103;SDS011;30865;51.288;4.572;2022-12-18T12:47:50;34.83;;;18.05;;
45103;SDS011;30865;51.288;4.572;2022-12-18T12:50:18;38.92;;;18.38;;
45103;SDS011;30865;51.288;4.572;2022-12-18T12:52:55;45.38;;;20.17;;
45103;SDS011;30865;51.288;4.572;2022-12-18T12:55:23;36.83;;;18.33;;
45103;SDS011;30865;51.288;4.572;2022-12-18T12:57:55;41.25;;;19.77;;
45103;SDS011;30865;51.288;4.572;2022-12-18T13:00:36;41.03;;;18.27;;
45103;SDS011;30865;51.288;4.572;2022-12-18T13:03:23;42.60;;;18.42;;
45103;SDS011;30865;51.288;4.572;2022-12-18T13:05:59;37.25;;;18.35;;
45103;SDS011;30865;51.288;4.572;2022-12-18T13:08:30;40.78;;;18.55;;
45103;SDS011;30865;51.288;4.572;2022-12-18T13:11:28;41.65;;;17.08;;
45103;SDS011;30865;51.288;4.572;2022-12-18T13:14:22;49.97;;;17.67;;
45103;SDS011;30865;51.288;4.572;2022-12-18T13:17:13;40.90;;;18.83;;
45103;SDS011;30865;51.288;4.572;2022-12-18T13:25:26;39.92;;;19.15;;
45103;SDS011;30865;51.288;4.572;2022-12-18T13:28:11;39.13;;;17.38;;
45103;SDS011;30865;51.288;4.572;2022-12-18T13:35:38;42.05;;;18.55;;
45103;SDS011;30865;51.288;4.572;2022-12-18T13:41:00;42.15;;;18.88;;
45103;SDS011;30865;51.288;4.572;2022-12-18T13:43:30;43.45;;;18.50;;
45103;SDS011;30865;51.288;4.572;2022-12-18T13:45:59;36.03;;;18.00;;
45103;SDS011;30865;51.288;4.572;2022-12-18T13:48:32;35.60;;;18.73;;
45103;SDS011;30865;51.288;4.572;2022-12-18T13:51:05;32.95;;;16.58;;
45103;SDS011;30865;51.288;4.572;2022-12-18T13:53:33;44.75;;;17.50;;
45103;SDS011;30865;51.288;4.572;2022-12-18T13:56:03;39.78;;;18.60;;
45103;SDS011;30865;51.288;4.572;2022-12-18T13:58:29;34.58;;;17.05;;
45103;SDS011;30865;51.288;4.572;2022-12-18T14:00:55;38.50;;;18.85;;
45103;SDS011;30865;51.288;4.572;2022-12-18T14:03:30;36.55;;;18.60;;
45103;SDS011;30865;51.288;4.572;2022-12-18T14:05:58;36.30;;;18.65;;
45103;SDS011;30865;51.288;4.572;2022-12-18T14:08:28;36.60;;;18.90;;
45103;SDS011;30865;51.288;4.572;2022-12-18T14:10:59;43.00;;;19.45;;
45103;SDS011;30865;51.288;4.572;2022-12-18T14:13:29;38.22;;;19.60;;
45103;SDS011;30865;51.288;4.572;2022-12-18T14:15:56;45.00;;;19.60;;
45103;SDS011;30865;51.288;4.572;2022-12-18T14:18:41;42.85;;;20.05;;
45103;SDS011;30865;51.288;4.572;2022-12-18T14:21:17;41.08;;;18.10;;
45103;SDS011;30865;51.288;4.572;2022-12-18T14:24:12;43.33;;;18.50;;
45103;SDS011;30865;51.288;4.572;2022-12-18T14:26:41;36.10;;;17.13;;
45103;SDS011;30865;51.288;4.572;2022-12-18T14:32:05;39.63;;;17.98;;
45103;SDS011;30865;51.288;4.572;2022-12-18T14:34:41;43.17;;;19.63;;
45103;SDS011;30865;51.288;4.572;2022-12-18T14:37:22;36.53;;;19.33;;
45103;SDS011;30865;51.288;4.572;2022-12-18T14:39:56;39.88;;;18.85;;
45103;SDS011;30865;51.288;4.572;2022-12-18T14:42:24;41.17;;;19.48;;
45103;SDS011;30865;51.288;4.572;2022-12-18T14:45:17;41.75;;;18.33;;
45103;SDS011;30865;51.288;4.572;2022-12-18T14:47:57;39.13;;;18.60;;
45103;SDS011;30865;51.288;4.572;2022-12-18T14:50:23;48.33;;;19.33;;
45103;SDS011;30865;51.288;4.572;2022-12-18T14:52:49;40.90;;;19.42;;
45103;SDS011;30865;51.288;4.572;2022-12-18T14:55:16;46.85;;;20.05;;
45103;SDS011;30865;51.288;4.572;2022-12-18T14:57:43;46.13;;;19.83;;
45103;SDS011;30865;51.288;4.572;2022-12-18T15:00:17;50.28;;;21.02;;
45103;SDS011;30865;51.288;4.572;2022-12-18T15:02:45;42.78;;;20.58;;
45103;SDS011;30865;51.288;4.572;2022-12-18T15:05:18;41.08;;;20.88;;
45103;SDS011;30865;51.288;4.572;2022-12-18T15:07:47;46.33;;;19.63;;
45103;SDS011;30865;51.288;4.572;2022-12-18T15:10:15;42.27;;;19.93;;
45103;SDS011;30865;51.288;4.572;2022-12-18T15:12:43;43.80;;;19.50;;
45103;SDS011;30865;51.288;4.572;2022-12-18T15:18:01;43.93;;;18.07;;
45103;SDS011;30865;51.288;4.572;2022-12-18T15:20:29;47.35;;;19.88;;
45103;SDS011;30865;51.288;4.572;2022-12-18T15:22:57;41.47;;;18.07;;
45103;SDS011;30865;51.288;4.572;2022-12-18T15:25:31;46.72;;;19.60;;
45103;SDS011;30865;51.288;4.572;2022-12-18T15:28:01;40.67;;;18.70;;
45103;SDS011;30865;51.288;4.572;2022-12-18T15:30:27;46.60;;;21.02;;
45103;SDS011;30865;51.288;4.572;2022-12-18T15:33:16;41.35;;;19.85;;
45103;SDS011;30865;51.288;4.572;2022-12-18T15:35:47;43.00;;;20.17;;
45103;SDS011;30865;51.288;4.572;2022-12-18T15:38:24;39.40;;;20.00;;
45103;SDS011;30865;51.288;4.572;2022-12-18T15:40:50;47.50;;;20.33;;
45103;SDS011;30865;51.288;4.572;2022-12-18T15:43:17;40.17;;;19.47;;
45103;SDS011;30865;51.288;4.572;2022-12-18T15:46:00;51.53;;;20.40;;
45103;SDS011;30865;51.288;4.572;2022-12-18T15:48:32;34.63;;;18.58;;
45103;SDS011;30865;51.288;4.572;2022-12-18T15:50:59;45.60;;;19.67;;
45103;SDS011;30865;51.288;4.572;2022-12-18T15:53:27;40.95;;;18.88;;